sensor_id;sensor_type;location;lat;lon;timestamp;pressure;altitude;pressure_sealevel;temperature
12061;BMP180;6091;51.432;6.880;2022-10-04T00:01:10;101615.00;;;24.80
12061;BMP180;6091;51.432;6.880;2022-10-04T00:04:05;101603.00;;;24.80
12061;BMP180;6091;51.432;6.880;2022-10-04T00:06:34;101613.00;;;24.80
12061;BMP180;6091;51.432;6.880;2022-10-04T00:09:15;101606.00;;;24.80
12061;BMP180;6091;51.432;6.880;2022-10-04T00:11:47;101603.00;;;24.80
12061;BMP180;6091;51.432;6.880;2022-10-04T00:14:25;101598.00;;;24.80
12061;BMP180;6091;51.432;6.880;2022-10-04T00:16:55;101597.00;;;24.80
12061;BMP180;6091;51.432;6.880;2022-10-04T00:22:28;101596.00;;;24.80
12061;BMP180;6091;51.432;6.880;2022-10-04T00:27:39;101597.00;;;24.80
12061;BMP180;6091;51.432;6.880;2022-10-04T00:30:36;101584.00;;;24.80
12061;BMP180;6091;51.432;6.880;2022-10-04T00:33:03;101583.00;;;24.80
12061;BMP180;6091;51.432;6.880;2022-10-04T00:38:01;101570.00;;;24.80
12061;BMP180;6091;51.432;6.880;2022-10-04T00:40:38;101571.00;;;24.80
12061;BMP180;6091;51.432;6.880;2022-10-04T00:43:19;101577.00;;;24.80
12061;BMP180;6091;51.432;6.880;2022-10-04T00:46:00;101575.00;;;24.80
12061;BMP180;6091;51.432;6.880;2022-10-04T00:48:45;101573.00;;;24.80
12061;BMP180;6091;51.432;6.880;2022-10-04T00:51:40;101580.00;;;24.80
12061;BMP180;6091;51.432;6.880;2022-10-04T00:54:33;101582.00;;;24.70
12061;BMP180;6091;51.432;6.880;2022-10-04T00:57:16;101586.00;;;24.70
12061;BMP180;6091;51.432;6.880;2022-10-04T01:03:02;101576.00;;;24.70
12061;BMP180;6091;51.432;6.880;2022-10-04T01:05:37;101575.00;;;24.70
12061;BMP180;6091;51.432;6.880;2022-10-04T01:08:09;101566.00;;;24.70
12061;BMP180;6091;51.432;6.880;2022-10-04T01:10:51;101560.00;;;24.70
12061;BMP180;6091;51.432;6.880;2022-10-04T01:13:30;101555.00;;;24.70
12061;BMP180;6091;51.432;6.880;2022-10-04T01:16:03;101556.00;;;24.70
12061;BMP180;6091;51.432;6.880;2022-10-04T01:18:36;101557.00;;;24.70
12061;BMP180;6091;51.432;6.880;2022-10-04T01:23:50;101545.00;;;24.70
12061;BMP180;6091;51.432;6.880;2022-10-04T01:29:00;101542.00;;;24.70
12061;BMP180;6091;51.432;6.880;2022-10-04T01:31:29;101538.00;;;24.70
12061;BMP180;6091;51.432;6.880;2022-10-04T01:33:59;101545.00;;;24.70
12061;BMP180;6091;51.432;6.880;2022-10-04T01:36:27;101544.00;;;24.70
12061;BMP180;6091;51.432;6.880;2022-10-04T01:38:55;101534.00;;;24.70
12061;BMP180;6091;51.432;6.880;2022-10-04T01:45:12;101533.00;;;24.70
12061;BMP180;6091;51.432;6.880;2022-10-04T01:47:55;101527.00;;;24.70
12061;BMP180;6091;51.432;6.880;2022-10-04T01:50:55;101525.00;;;24.70
12061;BMP180;6091;51.432;6.880;2022-10-04T01:53:28;101526.00;;;24.70
12061;BMP180;6091;51.432;6.880;2022-10-04T01:56:18;101520.00;;;24.70
12061;BMP180;6091;51.432;6.880;2022-10-04T01:58:58;101523.00;;;24.70
12061;BMP180;6091;51.432;6.880;2022-10-04T02:01:42;101503.00;;;24.70
12061;BMP180;6091;51.432;6.880;2022-10-04T02:04:27;101512.00;;;24.50
12061;BMP180;6091;51.432;6.880;2022-10-04T02:06:58;101511.00;;;24.70
12061;BMP180;6091;51.432;6.880;2022-10-04T02:09:33;101511.00;;;24.70
12061;BMP180;6091;51.432;6.880;2022-10-04T02:12:01;101511.00;;;24.70
12061;BMP180;6091;51.432;6.880;2022-10-04T02:14:32;101504.00;;;24.70
12061;BMP180;6091;51.432;6.880;2022-10-04T02:17:07;101501.00;;;24.70
12061;BMP180;6091;51.432;6.880;2022-10-04T02:19:40;101503.00;;;24.70
12061;BMP180;6091;51.432;6.880;2022-10-04T02:22:10;101501.00;;;24.70
12061;BMP180;6091;51.432;6.880;2022-10-04T02:24:44;101494.00;;;24.70
12061;BMP180;6091;51.432;6.880;2022-10-04T02:27:13;101485.00;;;24.70
12061;BMP180;6091;51.432;6.880;2022-10-04T02:29:40;101480.00;;;24.60
12061;BMP180;6091;51.432;6.880;2022-10-04T02:32:08;101473.00;;;24.70
12061;BMP180;6091;51.432;6.880;2022-10-04T02:34:55;101480.00;;;24.60
12061;BMP180;6091;51.432;6.880;2022-10-04T02:37:26;101479.00;;;24.60
12061;BMP180;6091;51.432;6.880;2022-10-04T02:40:05;101473.00;;;24.60
12061;BMP180;6091;51.432;6.880;2022-10-04T02:42:37;101476.00;;;24.60
12061;BMP180;6091;51.432;6.880;2022-10-04T02:45:35;101492.00;;;24.60
12061;BMP180;6091;51.432;6.880;2022-10-04T02:51:15;101471.00;;;24.60
12061;BMP180;6091;51.432;6.880;2022-10-04T02:56:30;101467.00;;;24.60
12061;BMP180;6091;51.432;6.880;2022-10-04T02:59:05;101473.00;;;24.60
12061;BMP180;6091;51.432;6.880;2022-10-04T03:04:15;101476.00;;;24.60
12061;BMP180;6091;51.432;6.880;2022-10-04T03:06:44;101469.00;;;24.60
12061;BMP180;6091;51.432;6.880;2022-10-04T03:09:14;101461.00;;;24.60
12061;BMP180;6091;51.432;6.880;2022-10-04T03:11:43;101453.00;;;24.60
12061;BMP180;6091;51.432;6.880;2022-10-04T03:18:21;101448.00;;;24.50
12061;BMP180;6091;51.432;6.880;2022-10-04T03:20:51;101455.00;;;24.50
12061;BMP180;6091;51.432;6.880;2022-10-04T03:23:19;101453.00;;;24.50
12061;BMP180;6091;51.432;6.880;2022-10-04T03:25:58;101448.00;;;24.60
12061;BMP180;6091;51.432;6.880;2022-10-04T03:28:28;101452.00;;;24.60
12061;BMP180;6091;51.432;6.880;2022-10-04T03:30:55;101445.00;;;24.60
12061;BMP180;6091;51.432;6.880;2022-10-04T03:33:25;101450.00;;;24.60
12061;BMP180;6091;51.432;6.880;2022-10-04T03:35:56;101447.00;;;24.60
12061;BMP180;6091;51.432;6.880;2022-10-04T03:38:25;101450.00;;;24.60
12061;BMP180;6091;51.432;6.880;2022-10-04T03:40:56;101436.00;;;24.60
12061;BMP180;6091;51.432;6.880;2022-10-04T03:43:30;101441.00;;;24.60
12061;BMP180;6091;51.432;6.880;2022-10-04T03:46:00;101438.00;;;24.60
12061;BMP180;6091;51.432;6.880;2022-10-04T03:48:36;101440.00;;;24.60
12061;BMP180;6091;51.432;6.880;2022-10-04T03:51:14;101436.00;;;24.60
12061;BMP180;6091;51.432;6.880;2022-10-04T03:53:46;101438.00;;;24.50
12061;BMP180;6091;51.432;6.880;2022-10-04T03:56:29;101428.00;;;24.50
12061;BMP180;6091;51.432;6.880;2022-10-04T03:58:57;101422.00;;;24.50
12061;BMP180;6091;51.432;6.880;2022-10-04T04:01:43;101421.00;;;24.50
12061;BMP180;6091;51.432;6.880;2022-10-04T04:07:11;101429.00;;;24.50
12061;BMP180;6091;51.432;6.880;2022-10-04T04:10:20;101428.00;;;24.50
12061;BMP180;6091;51.432;6.880;2022-10-04T04:12:55;101418.00;;;24.50
12061;BMP180;6091;51.432;6.880;2022-10-04T04:15:30;101431.00;;;24.50
12061;BMP180;6091;51.432;6.880;2022-10-04T04:18:11;101421.00;;;24.50
12061;BMP180;6091;51.432;6.880;2022-10-04T04:20:41;101417.00;;;24.50
12061;BMP180;6091;51.432;6.880;2022-10-04T04:25:50;101419.00;;;24.50
12061;BMP180;6091;51.432;6.880;2022-10-04T04:28:33;101415.00;;;24.50
12061;BMP180;6091;51.432;6.880;2022-10-04T04:31:46;101414.00;;;24.50
12061;BMP180;6091;51.432;6.880;2022-10-04T04:34:26;101416.00;;;24.50
12061;BMP180;6091;51.432;6.880;2022-10-04T04:37:03;101418.00;;;24.50
12061;BMP180;6091;51.432;6.880;2022-10-04T04:39:31;101409.00;;;24.50
12061;BMP180;6091;51.432;6.880;2022-10-04T04:42:29;101400.00;;;24.50
12061;BMP180;6091;51.432;6.880;2022-10-04T04:45:03;101393.00;;;24.50
12061;BMP180;6091;51.432;6.880;2022-10-04T04:47:41;101405.00;;;24.40
12061;BMP180;6091;51.432;6.880;2022-10-04T04:52:54;101389.00;;;24.40
12061;BMP180;6091;51.432;6.880;2022-10-04T04:55:35;101384.00;;;24.40
12061;BMP180;6091;51.432;6.880;2022-10-04T04:58:45;101385.00;;;24.40
12061;BMP180;6091;51.432;6.880;2022-10-04T05:01:44;101379.00;;;24.40
12061;BMP180;6091;51.432;6.880;2022-10-04T05:04:14;101375.00;;;24.40
12061;BMP180;6091;51.432;6.880;2022-10-04T05:06:46;101375.00;;;24.40
12061;BMP180;6091;51.432;6.880;2022-10-04T05:09:29;101370.00;;;24.40
12061;BMP180;6091;51.432;6.880;2022-10-04T05:12:21;101375.00;;;24.40
12061;BMP180;6091;51.432;6.880;2022-10-04T05:14:55;101382.00;;;24.40
12061;BMP180;6091;51.432;6.880;2022-10-04T05:17:30;101378.00;;;24.40
12061;BMP180;6091;51.432;6.880;2022-10-04T05:20:01;101376.00;;;24.40
12061;BMP180;6091;51.432;6.880;2022-10-04T05:22:31;101370.00;;;24.40
12061;BMP180;6091;51.432;6.880;2022-10-04T05:25:07;101378.00;;;24.40
12061;BMP180;6091;51.432;6.880;2022-10-04T05:27:41;101387.00;;;24.40
12061;BMP180;6091;51.432;6.880;2022-10-04T05:30:48;101391.00;;;24.40
12061;BMP180;6091;51.432;6.880;2022-10-04T05:33:26;101379.00;;;24.40
12061;BMP180;6091;51.432;6.880;2022-10-04T05:36:16;101387.00;;;24.40
12061;BMP180;6091;51.432;6.880;2022-10-04T05:39:00;101384.00;;;24.40
12061;BMP180;6091;51.432;6.880;2022-10-04T05:46:58;101387.00;;;24.40
12061;BMP180;6091;51.432;6.880;2022-10-04T05:49:33;101387.00;;;24.40
12061;BMP180;6091;51.432;6.880;2022-10-04T05:52:13;101382.00;;;24.50
12061;BMP180;6091;51.432;6.880;2022-10-04T05:54:41;101378.00;;;24.50
12061;BMP180;6091;51.432;6.880;2022-10-04T05:57:44;101387.00;;;24.60
12061;BMP180;6091;51.432;6.880;2022-10-04T06:00:19;101378.00;;;24.60
12061;BMP180;6091;51.432;6.880;2022-10-04T06:06:04;101381.00;;;24.80
12061;BMP180;6091;51.432;6.880;2022-10-04T06:11:52;101393.00;;;24.90
12061;BMP180;6091;51.432;6.880;2022-10-04T06:23:15;101376.00;;;25.20
12061;BMP180;6091;51.432;6.880;2022-10-04T06:25:56;101386.00;;;25.30
12061;BMP180;6091;51.432;6.880;2022-10-04T06:28:57;101389.00;;;25.30
12061;BMP180;6091;51.432;6.880;2022-10-04T06:35:28;101388.00;;;25.40
12061;BMP180;6091;51.432;6.880;2022-10-04T06:41:45;101393.00;;;25.50
12061;BMP180;6091;51.432;6.880;2022-10-04T06:50:34;101396.00;;;25.70
12061;BMP180;6091;51.432;6.880;2022-10-04T06:56:25;101394.00;;;25.70
12061;BMP180;6091;51.432;6.880;2022-10-04T07:01:53;101401.00;;;25.80
12061;BMP180;6091;51.432;6.880;2022-10-04T07:04:41;101408.00;;;25.90
12061;BMP180;6091;51.432;6.880;2022-10-04T07:07:35;101398.00;;;25.90
12061;BMP180;6091;51.432;6.880;2022-10-04T07:12:51;101406.00;;;26.00
12061;BMP180;6091;51.432;6.880;2022-10-04T07:15:26;101405.00;;;26.00
12061;BMP180;6091;51.432;6.880;2022-10-04T07:18:01;101399.00;;;26.10
12061;BMP180;6091;51.432;6.880;2022-10-04T07:20:37;101395.00;;;26.10
12061;BMP180;6091;51.432;6.880;2022-10-04T07:23:25;101402.00;;;26.10
12061;BMP180;6091;51.432;6.880;2022-10-04T07:26:05;101399.00;;;26.10
12061;BMP180;6091;51.432;6.880;2022-10-04T07:28:39;101395.00;;;26.20
12061;BMP180;6091;51.432;6.880;2022-10-04T07:31:30;101405.00;;;26.20
12061;BMP180;6091;51.432;6.880;2022-10-04T07:34:09;101412.00;;;26.20
12061;BMP180;6091;51.432;6.880;2022-10-04T07:36:53;101410.00;;;26.20
12061;BMP180;6091;51.432;6.880;2022-10-04T07:39:27;101411.00;;;26.30
12061;BMP180;6091;51.432;6.880;2022-10-04T07:45:31;101417.00;;;26.30
12061;BMP180;6091;51.432;6.880;2022-10-04T07:48:18;101401.00;;;26.30
12061;BMP180;6091;51.432;6.880;2022-10-04T07:54:43;101431.00;;;26.30
12061;BMP180;6091;51.432;6.880;2022-10-04T07:57:38;101422.00;;;26.30
12061;BMP180;6091;51.432;6.880;2022-10-04T08:00:18;101417.00;;;26.30
12061;BMP180;6091;51.432;6.880;2022-10-04T08:03:30;101411.00;;;26.30
12061;BMP180;6091;51.432;6.880;2022-10-04T08:21:00;101410.00;;;26.20
12061;BMP180;6091;51.432;6.880;2022-10-04T08:24:02;101409.00;;;26.10
12061;BMP180;6091;51.432;6.880;2022-10-04T08:35:24;101403.00;;;26.20
12061;BMP180;6091;51.432;6.880;2022-10-04T08:48:17;101409.00;;;26.20
12061;BMP180;6091;51.432;6.880;2022-10-04T08:57:31;101413.00;;;26.30
12061;BMP180;6091;51.432;6.880;2022-10-04T09:12:48;101398.00;;;26.30
12061;BMP180;6091;51.432;6.880;2022-10-04T09:15:51;101395.00;;;26.40
12061;BMP180;6091;51.432;6.880;2022-10-04T09:25:02;101392.00;;;26.40
12061;BMP180;6091;51.432;6.880;2022-10-04T09:27:51;101391.00;;;26.40
12061;BMP180;6091;51.432;6.880;2022-10-04T09:33:24;101389.00;;;26.50
12061;BMP180;6091;51.432;6.880;2022-10-04T10:14:51;101367.00;;;26.90
12061;BMP180;6091;51.432;6.880;2022-10-04T10:18:07;101371.00;;;27.00
12061;BMP180;6091;51.432;6.880;2022-10-04T10:24:19;101363.00;;;27.10
12061;BMP180;6091;51.432;6.880;2022-10-04T10:26:43;101371.00;;;27.20
12061;BMP180;6091;51.432;6.880;2022-10-04T10:29:30;101359.00;;;27.30
12061;BMP180;6091;51.432;6.880;2022-10-04T10:35:52;101360.00;;;27.60
12061;BMP180;6091;51.432;6.880;2022-10-04T10:39:02;101361.00;;;27.70
12061;BMP180;6091;51.432;6.880;2022-10-04T10:51:12;101366.00;;;28.50
12061;BMP180;6091;51.432;6.880;2022-10-04T11:11:24;101351.00;;;30.00
12061;BMP180;6091;51.432;6.880;2022-10-04T11:23:36;101348.00;;;30.80
12061;BMP180;6091;51.432;6.880;2022-10-04T11:45:19;101331.00;;;32.00
12061;BMP180;6091;51.432;6.880;2022-10-04T12:00:23;101341.00;;;32.60
12061;BMP180;6091;51.432;6.880;2022-10-04T12:09:22;101323.00;;;32.90
12061;BMP180;6091;51.432;6.880;2022-10-04T12:32:43;101298.00;;;33.40
12061;BMP180;6091;51.432;6.880;2022-10-04T12:53:29;101263.00;;;32.70
12061;BMP180;6091;51.432;6.880;2022-10-04T13:05:29;101260.00;;;31.60
12061;BMP180;6091;51.432;6.880;2022-10-04T13:16:49;101260.00;;;30.70
12061;BMP180;6091;51.432;6.880;2022-10-04T13:23:49;101244.00;;;30.20
12061;BMP180;6091;51.432;6.880;2022-10-04T13:32:24;101211.00;;;29.60
12061;BMP180;6091;51.432;6.880;2022-10-04T13:35:22;101227.00;;;29.50
12061;BMP180;6091;51.432;6.880;2022-10-04T13:44:15;101212.00;;;29.10
12061;BMP180;6091;51.432;6.880;2022-10-04T13:50:18;101197.00;;;28.90
12061;BMP180;6091;51.432;6.880;2022-10-04T13:56:48;101191.00;;;28.80
12061;BMP180;6091;51.432;6.880;2022-10-04T13:59:58;101197.00;;;28.70
12061;BMP180;6091;51.432;6.880;2022-10-04T14:32:49;101175.00;;;28.30
12061;BMP180;6091;51.432;6.880;2022-10-04T14:35:47;101176.00;;;28.30
12061;BMP180;6091;51.432;6.880;2022-10-04T14:39:00;101175.00;;;28.30
12061;BMP180;6091;51.432;6.880;2022-10-04T14:56:22;101133.00;;;28.20
12061;BMP180;6091;51.432;6.880;2022-10-04T15:07:44;101145.00;;;28.00
12061;BMP180;6091;51.432;6.880;2022-10-04T15:10:28;101144.00;;;28.00
12061;BMP180;6091;51.432;6.880;2022-10-04T15:13:34;101142.00;;;28.00
12061;BMP180;6091;51.432;6.880;2022-10-04T15:16:32;101140.00;;;27.90
12061;BMP180;6091;51.432;6.880;2022-10-04T15:22:14;101141.00;;;27.90
12061;BMP180;6091;51.432;6.880;2022-10-04T15:24:51;101146.00;;;27.90
12061;BMP180;6091;51.432;6.880;2022-10-04T15:30:29;101144.00;;;27.80
12061;BMP180;6091;51.432;6.880;2022-10-04T15:33:40;101145.00;;;27.80
12061;BMP180;6091;51.432;6.880;2022-10-04T15:42:09;101141.00;;;27.70
12061;BMP180;6091;51.432;6.880;2022-10-04T16:10:54;101149.00;;;27.60
12061;BMP180;6091;51.432;6.880;2022-10-04T16:22:27;101144.00;;;27.40
12061;BMP180;6091;51.432;6.880;2022-10-04T16:30:33;101143.00;;;27.40
12061;BMP180;6091;51.432;6.880;2022-10-04T16:33:31;101133.00;;;27.40
12061;BMP180;6091;51.432;6.880;2022-10-04T16:36:17;101137.00;;;27.40
12061;BMP180;6091;51.432;6.880;2022-10-04T16:38:50;101132.00;;;27.30
12061;BMP180;6091;51.432;6.880;2022-10-04T16:41:58;101128.00;;;27.30
12061;BMP180;6091;51.432;6.880;2022-10-04T16:45:24;101129.00;;;27.30
12061;BMP180;6091;51.432;6.880;2022-10-04T16:47:56;101138.00;;;27.20
12061;BMP180;6091;51.432;6.880;2022-10-04T16:56:28;101134.00;;;27.10
12061;BMP180;6091;51.432;6.880;2022-10-04T16:59:02;101125.00;;;27.00
12061;BMP180;6091;51.432;6.880;2022-10-04T17:01:54;101129.00;;;26.90
12061;BMP180;6091;51.432;6.880;2022-10-04T17:16:49;101114.00;;;26.70
12061;BMP180;6091;51.432;6.880;2022-10-04T17:19:33;101125.00;;;26.70
12061;BMP180;6091;51.432;6.880;2022-10-04T17:22:46;101129.00;;;26.60
12061;BMP180;6091;51.432;6.880;2022-10-04T17:28:40;101131.00;;;26.50
12061;BMP180;6091;51.432;6.880;2022-10-04T17:31:14;101129.00;;;26.40
12061;BMP180;6091;51.432;6.880;2022-10-04T17:34:24;101132.00;;;26.40
12061;BMP180;6091;51.432;6.880;2022-10-04T17:46:16;101150.00;;;26.10
12061;BMP180;6091;51.432;6.880;2022-10-04T17:49:00;101152.00;;;26.10
12061;BMP180;6091;51.432;6.880;2022-10-04T17:51:51;101150.00;;;26.00
12061;BMP180;6091;51.432;6.880;2022-10-04T17:54:43;101150.00;;;26.00
12061;BMP180;6091;51.432;6.880;2022-10-04T17:57:57;101150.00;;;26.00
12061;BMP180;6091;51.432;6.880;2022-10-04T18:00:46;101152.00;;;25.90
12061;BMP180;6091;51.432;6.880;2022-10-04T18:03:23;101145.00;;;25.90
12061;BMP180;6091;51.432;6.880;2022-10-04T18:06:02;101156.00;;;25.90
12061;BMP180;6091;51.432;6.880;2022-10-04T18:11:58;101152.00;;;25.80
12061;BMP180;6091;51.432;6.880;2022-10-04T18:14:40;101156.00;;;25.70
12061;BMP180;6091;51.432;6.880;2022-10-04T18:17:46;101162.00;;;25.70
12061;BMP180;6091;51.432;6.880;2022-10-04T18:20:27;101166.00;;;25.60
12061;BMP180;6091;51.432;6.880;2022-10-04T18:23:00;101163.00;;;25.60
12061;BMP180;6091;51.432;6.880;2022-10-04T18:25:31;101154.00;;;25.60
12061;BMP180;6091;51.432;6.880;2022-10-04T18:28:12;101165.00;;;25.60
12061;BMP180;6091;51.432;6.880;2022-10-04T18:36:22;101166.00;;;25.40
12061;BMP180;6091;51.432;6.880;2022-10-04T18:41:44;101170.00;;;25.50
12061;BMP180;6091;51.432;6.880;2022-10-04T18:44:25;101168.00;;;25.50
12061;BMP180;6091;51.432;6.880;2022-10-04T18:46:58;101175.00;;;25.50
12061;BMP180;6091;51.432;6.880;2022-10-04T18:49:30;101166.00;;;25.50
12061;BMP180;6091;51.432;6.880;2022-10-04T18:55:28;101172.00;;;25.40
12061;BMP180;6091;51.432;6.880;2022-10-04T19:08:04;101178.00;;;25.30
12061;BMP180;6091;51.432;6.880;2022-10-04T19:10:57;101177.00;;;25.30
12061;BMP180;6091;51.432;6.880;2022-10-04T19:13:51;101167.00;;;25.30
12061;BMP180;6091;51.432;6.880;2022-10-04T19:17:17;101156.00;;;25.30
12061;BMP180;6091;51.432;6.880;2022-10-04T19:20:13;101150.00;;;25.30
12061;BMP180;6091;51.432;6.880;2022-10-04T19:23:29;101154.00;;;25.30
12061;BMP180;6091;51.432;6.880;2022-10-04T19:26:09;101158.00;;;25.30
12061;BMP180;6091;51.432;6.880;2022-10-04T19:41:15;101161.00;;;25.10
12061;BMP180;6091;51.432;6.880;2022-10-04T19:44:16;101166.00;;;25.10
12061;BMP180;6091;51.432;6.880;2022-10-04T19:52:17;101176.00;;;25.00
12061;BMP180;6091;51.432;6.880;2022-10-04T19:54:59;101184.00;;;25.00
12061;BMP180;6091;51.432;6.880;2022-10-04T19:57:37;101178.00;;;25.00
12061;BMP180;6091;51.432;6.880;2022-10-04T20:00:13;101173.00;;;24.90
12061;BMP180;6091;51.432;6.880;2022-10-04T20:02:43;101165.00;;;24.90
12061;BMP180;6091;51.432;6.880;2022-10-04T20:05:20;101165.00;;;25.00
12061;BMP180;6091;51.432;6.880;2022-10-04T20:07:56;101170.00;;;25.00
12061;BMP180;6091;51.432;6.880;2022-10-04T20:10:35;101164.00;;;25.00
12061;BMP180;6091;51.432;6.880;2022-10-04T20:13:24;101162.00;;;25.10
12061;BMP180;6091;51.432;6.880;2022-10-04T20:15:58;101163.00;;;25.10
12061;BMP180;6091;51.432;6.880;2022-10-04T20:26:53;101159.00;;;25.10
12061;BMP180;6091;51.432;6.880;2022-10-04T20:32:07;101153.00;;;25.10
12061;BMP180;6091;51.432;6.880;2022-10-04T20:37:07;101138.00;;;25.10
12061;BMP180;6091;51.432;6.880;2022-10-04T20:47:47;101134.00;;;25.10
12061;BMP180;6091;51.432;6.880;2022-10-04T20:52:52;101127.00;;;25.20
12061;BMP180;6091;51.432;6.880;2022-10-04T20:55:27;101126.00;;;25.20
12061;BMP180;6091;51.432;6.880;2022-10-04T20:57:59;101129.00;;;25.20
12061;BMP180;6091;51.432;6.880;2022-10-04T21:00:30;101131.00;;;25.20
12061;BMP180;6091;51.432;6.880;2022-10-04T21:03:28;101128.00;;;25.20
12061;BMP180;6091;51.432;6.880;2022-10-04T21:06:05;101122.00;;;25.20
12061;BMP180;6091;51.432;6.880;2022-10-04T21:08:35;101128.00;;;25.20
12061;BMP180;6091;51.432;6.880;2022-10-04T21:11:21;101130.00;;;25.20
12061;BMP180;6091;51.432;6.880;2022-10-04T21:13:58;101132.00;;;25.20
12061;BMP180;6091;51.432;6.880;2022-10-04T21:16:39;101132.00;;;25.30
12061;BMP180;6091;51.432;6.880;2022-10-04T21:21:57;101149.00;;;25.20
12061;BMP180;6091;51.432;6.880;2022-10-04T21:24:42;101153.00;;;25.20
12061;BMP180;6091;51.432;6.880;2022-10-04T21:27:24;101148.00;;;25.20
12061;BMP180;6091;51.432;6.880;2022-10-04T21:29:52;101147.00;;;25.20
12061;BMP180;6091;51.432;6.880;2022-10-04T21:32:24;101138.00;;;25.20
12061;BMP180;6091;51.432;6.880;2022-10-04T21:34:51;101135.00;;;25.20
12061;BMP180;6091;51.432;6.880;2022-10-04T21:37:20;101141.00;;;25.20
12061;BMP180;6091;51.432;6.880;2022-10-04T21:39:47;101142.00;;;25.20
12061;BMP180;6091;51.432;6.880;2022-10-04T21:42:15;101134.00;;;25.20
12061;BMP180;6091;51.432;6.880;2022-10-04T21:44:42;101130.00;;;25.20
12061;BMP180;6091;51.432;6.880;2022-10-04T21:47:09;101130.00;;;25.20
12061;BMP180;6091;51.432;6.880;2022-10-04T21:49:37;101128.00;;;25.20
12061;BMP180;6091;51.432;6.880;2022-10-04T21:52:04;101120.00;;;25.20
12061;BMP180;6091;51.432;6.880;2022-10-04T21:54:32;101129.00;;;25.20
12061;BMP180;6091;51.432;6.880;2022-10-04T21:56:59;101136.00;;;25.20
12061;BMP180;6091;51.432;6.880;2022-10-04T21:59:26;101143.00;;;25.20
12061;BMP180;6091;51.432;6.880;2022-10-04T22:01:53;101154.00;;;25.20
12061;BMP180;6091;51.432;6.880;2022-10-04T22:04:20;101146.00;;;25.20
12061;BMP180;6091;51.432;6.880;2022-10-04T22:06:47;101156.00;;;25.10
12061;BMP180;6091;51.432;6.880;2022-10-04T22:09:15;101150.00;;;25.10
12061;BMP180;6091;51.432;6.880;2022-10-04T22:11:42;101147.00;;;25.10
12061;BMP180;6091;51.432;6.880;2022-10-04T22:14:09;101147.00;;;25.10
12061;BMP180;6091;51.432;6.880;2022-10-04T22:16:36;101147.00;;;25.10
12061;BMP180;6091;51.432;6.880;2022-10-04T22:19:03;101137.00;;;25.10
12061;BMP180;6091;51.432;6.880;2022-10-04T22:21:30;101124.00;;;25.10
12061;BMP180;6091;51.432;6.880;2022-10-04T22:23:58;101126.00;;;25.10
12061;BMP180;6091;51.432;6.880;2022-10-04T22:26:26;101123.00;;;25.10
12061;BMP180;6091;51.432;6.880;2022-10-04T22:28:55;101126.00;;;25.10
12061;BMP180;6091;51.432;6.880;2022-10-04T22:31:26;101119.00;;;25.10
12061;BMP180;6091;51.432;6.880;2022-10-04T22:33:54;101126.00;;;25.10
12061;BMP180;6091;51.432;6.880;2022-10-04T22:36:30;101137.00;;;25.10
12061;BMP180;6091;51.432;6.880;2022-10-04T22:39:21;101136.00;;;25.10
12061;BMP180;6091;51.432;6.880;2022-10-04T22:41:59;101135.00;;;25.10
12061;BMP180;6091;51.432;6.880;2022-10-04T22:44:37;101142.00;;;25.10
12061;BMP180;6091;51.432;6.880;2022-10-04T22:47:11;101139.00;;;25.10
12061;BMP180;6091;51.432;6.880;2022-10-04T22:49:42;101133.00;;;25.10
12061;BMP180;6091;51.432;6.880;2022-10-04T22:52:29;101132.00;;;25.10
12061;BMP180;6091;51.432;6.880;2022-10-04T22:55:00;101133.00;;;25.10
12061;BMP180;6091;51.432;6.880;2022-10-04T22:57:29;101141.00;;;25.10
12061;BMP180;6091;51.432;6.880;2022-10-04T22:59:56;101137.00;;;25.10
12061;BMP180;6091;51.432;6.880;2022-10-04T23:02:28;101128.00;;;25.10
12061;BMP180;6091;51.432;6.880;2022-10-04T23:05:07;101126.00;;;25.10
12061;BMP180;6091;51.432;6.880;2022-10-04T23:11:05;101126.00;;;25.00
12061;BMP180;6091;51.432;6.880;2022-10-04T23:13:32;101112.00;;;25.00
12061;BMP180;6091;51.432;6.880;2022-10-04T23:16:16;101122.00;;;25.00
12061;BMP180;6091;51.432;6.880;2022-10-04T23:18:44;101123.00;;;25.00
12061;BMP180;6091;51.432;6.880;2022-10-04T23:21:23;101119.00;;;25.10
12061;BMP180;6091;51.432;6.880;2022-10-04T23:23:52;101116.00;;;25.00
12061;BMP180;6091;51.432;6.880;2022-10-04T23:26:25;101123.00;;;25.00
12061;BMP180;6091;51.432;6.880;2022-10-04T23:28:53;101127.00;;;25.00
12061;BMP180;6091;51.432;6.880;2022-10-04T23:31:25;101128.00;;;25.10
12061;BMP180;6091;51.432;6.880;2022-10-04T23:33:55;101121.00;;;25.00
12061;BMP180;6091;51.432;6.880;2022-10-04T23:36:23;101125.00;;;25.00
12061;BMP180;6091;51.432;6.880;2022-10-04T23:38:58;101122.00;;;25.00
12061;BMP180;6091;51.432;6.880;2022-10-04T23:41:26;101118.00;;;25.00
12061;BMP180;6091;51.432;6.880;2022-10-04T23:43:53;101113.00;;;25.00
12061;BMP180;6091;51.432;6.880;2022-10-04T23:46:22;101123.00;;;25.00
12061;BMP180;6091;51.432;6.880;2022-10-04T23:48:50;101112.00;;;25.00
12061;BMP180;6091;51.432;6.880;2022-10-04T23:51:18;101113.00;;;25.00
12061;BMP180;6091;51.432;6.880;2022-10-04T23:53:48;101105.00;;;25.00
12061;BMP180;6091;51.432;6.880;2022-10-04T23:56:23;101101.00;;;25.00
12061;BMP180;6091;51.432;6.880;2022-10-04T23:58:53;101099.00;;;25.00
